createdAt,value
2022-12-01T00:09:50.195Z,63.40
2022-12-01T00:17:28.468Z,63.60
2022-12-01T00:20:45.605Z,63.80
2022-12-01T00:23:46.732Z,63.40
2022-12-01T00:27:23.250Z,63.30
2022-12-01T00:30:44.812Z,63.30
2022-12-01T00:37:27.166Z,62.60
2022-12-01T00:40:11.581Z,62.90
2022-12-01T00:43:37.529Z,62.90
2022-12-01T00:47:04.727Z,62.90
2022-12-01T00:50:22.161Z,62.90
2022-12-01T00:54:16.699Z,62.30
2022-12-01T00:57:49.599Z,62.50
2022-12-01T01:09:18.039Z,61.50
2022-12-01T01:13:14.757Z,62.20
2022-12-01T01:19:53.807Z,61.40
2022-12-01T01:23:19.663Z,61.70
2022-12-01T01:26:35.974Z,62.00
2022-12-01T01:30:56.996Z,61.80
2022-12-01T01:34:10.908Z,62.40
2022-12-01T01:37:37.349Z,61.60
2022-12-01T01:40:50.841Z,61.50
2022-12-01T01:43:59.439Z,62.10
2022-12-01T01:51:00.194Z,61.70
2022-12-01T01:53:52.442Z,62.00
2022-12-01T01:56:35.313Z,62.10
2022-12-01T02:02:45.575Z,62.50
2022-12-01T02:10:30.530Z,62.40
2022-12-01T02:13:58.914Z,62.40
2022-12-01T02:16:45.452Z,61.70
2022-12-01T02:20:40.437Z,61.60
2022-12-01T02:24:05.450Z,61.20
2022-12-01T02:27:13.361Z,61.50
2022-12-01T02:30:34.848Z,61.50
2022-12-01T02:33:54.686Z,61.40
2022-12-01T02:36:39.200Z,60.60
2022-12-01T02:43:03.931Z,59.30
2022-12-01T02:46:01.005Z,59.90
2022-12-01T02:49:12.910Z,60.20
2022-12-01T02:52:07.130Z,59.50
2022-12-01T02:54:51.459Z,60.10
2022-12-01T02:57:52.760Z,59.40
2022-12-01T03:04:10.684Z,59.50
2022-12-01T03:07:17.940Z,59.90
2022-12-01T03:10:44.724Z,59.10
2022-12-01T03:13:39.126Z,59.20
2022-12-01T03:23:27.823Z,58.00
2022-12-01T03:26:12.365Z,56.80
2022-12-01T03:29:12.704Z,56.60
2022-12-01T03:32:51.222Z,56.90
2022-12-01T03:36:17.824Z,56.30
2022-12-01T03:39:06.199Z,57.70
2022-12-01T03:42:10.474Z,57.00
2022-12-01T03:45:08.754Z,57.10
2022-12-01T03:48:01.652Z,58.00
2022-12-01T03:52:19.829Z,56.90
2022-12-01T03:55:22.323Z,57.00
2022-12-01T03:58:10.578Z,58.40
2022-12-01T04:01:38.125Z,58.10
2022-12-01T04:04:17.846Z,57.70
2022-12-01T04:07:57.450Z,58.00
2022-12-01T04:10:54.336Z,58.30
2022-12-01T04:13:59.766Z,57.20
2022-12-01T04:16:47.136Z,57.60
2022-12-01T04:19:50.553Z,58.30
2022-12-01T04:23:12.112Z,57.90
2022-12-01T04:26:17.254Z,56.40
2022-12-01T04:29:19.691Z,57.10
2022-12-01T04:32:12.710Z,57.50
2022-12-01T04:34:53.691Z,57.10
2022-12-01T04:37:55.821Z,57.40
2022-12-01T04:41:09.176Z,58.30
2022-12-01T04:43:43.816Z,59.30
2022-12-01T04:49:47.343Z,59.20
2022-12-01T04:52:34.892Z,59.50
2022-12-01T04:55:33.456Z,59.20
2022-12-01T04:58:24.954Z,59.20
2022-12-01T05:01:08.911Z,59.30
2022-12-01T05:04:14.124Z,59.10
2022-12-01T05:07:01.049Z,58.80
2022-12-01T05:10:06.866Z,59.30
2022-12-01T05:12:48.266Z,58.40
2022-12-01T05:15:45.620Z,59.30
2022-12-01T05:18:49.068Z,59.30
2022-12-01T05:21:46.920Z,58.30
2022-12-01T05:24:46.548Z,58.70
2022-12-01T05:27:36.037Z,58.90
2022-12-01T05:33:38.696Z,58.70
2022-12-01T05:36:20.118Z,58.70
2022-12-01T05:39:13.023Z,58.30
2022-12-01T05:42:14.622Z,58.00
2022-12-01T05:45:04.670Z,58.10
2022-12-01T05:47:39.881Z,57.80
2022-12-01T05:50:45.581Z,58.00
2022-12-01T05:53:38.681Z,58.60
2022-12-01T05:56:16.534Z,58.40
2022-12-01T05:59:17.974Z,58.50
2022-12-01T06:01:58.492Z,57.80
2022-12-01T06:05:05.264Z,57.80
2022-12-01T06:07:54.866Z,57.70
2022-12-01T06:10:56.048Z,58.30
2022-12-01T06:16:48.981Z,58.00
2022-12-01T06:19:33.455Z,58.10
2022-12-01T06:22:17.329Z,58.00
2022-12-01T06:28:37.511Z,57.00
2022-12-01T06:35:40.053Z,57.20
2022-12-01T06:39:32.793Z,57.50
2022-12-01T06:46:00.863Z,57.80
2022-12-01T06:48:58.348Z,57.80
2022-12-01T06:51:54.042Z,57.80
2022-12-01T06:54:57.036Z,58.10
2022-12-01T07:01:07.098Z,57.80
2022-12-01T07:03:58.570Z,57.50
2022-12-01T07:06:50.911Z,57.90
2022-12-01T07:09:55.906Z,57.40
2022-12-01T07:12:38.773Z,58.50
2022-12-01T07:15:50.709Z,57.10
2022-12-01T07:19:28.853Z,57.70
2022-12-01T07:22:39.262Z,57.80
2022-12-01T07:29:03.629Z,59.40
2022-12-01T07:31:44.117Z,59.00
2022-12-01T07:34:24.839Z,59.10
2022-12-01T07:37:13.680Z,58.70
2022-12-01T07:39:54.341Z,58.90
2022-12-01T07:42:34.221Z,59.20
2022-12-01T07:45:20.184Z,59.70
2022-12-01T07:48:01.721Z,59.40
2022-12-01T07:50:53.790Z,59.60
2022-12-01T07:53:47.307Z,59.40
2022-12-01T07:56:43.497Z,59.50
2022-12-01T07:59:35.588Z,58.90
2022-12-01T08:02:32.013Z,59.00
2022-12-01T08:15:59.697Z,57.70
2022-12-01T08:18:46.315Z,57.80
2022-12-01T08:22:13.899Z,58.00
2022-12-01T08:28:31.392Z,58.00
2022-12-01T08:31:21.417Z,57.90
2022-12-01T08:38:21.571Z,57.80
2022-12-01T08:45:34.484Z,58.00
2022-12-01T08:49:02.590Z,58.00
2022-12-01T08:56:16.753Z,57.80
2022-12-01T08:59:18.866Z,57.30
2022-12-01T09:02:28.576Z,57.70
2022-12-01T09:05:53.665Z,56.70
2022-12-01T09:09:18.327Z,57.30
2022-12-01T09:19:13.447Z,58.00
2022-12-01T09:22:36.112Z,57.90
2022-12-01T09:26:13.403Z,58.20
2022-12-01T09:29:13.088Z,58.00
2022-12-01T09:36:15.604Z,58.10
2022-12-01T09:38:59.097Z,57.20
2022-12-01T09:42:13.913Z,58.30
2022-12-01T09:52:04.411Z,58.50
2022-12-01T09:55:18.641Z,57.70
2022-12-01T09:58:34.429Z,57.80
2022-12-01T10:01:49.609Z,57.80
2022-12-01T10:05:06.357Z,57.30
2022-12-01T10:07:58.917Z,57.80
2022-12-01T10:10:59.401Z,56.10
2022-12-01T10:14:08.329Z,58.10
2022-12-01T10:16:51.811Z,58.10
2022-12-01T10:19:37.985Z,57.80
2022-12-01T10:22:33.455Z,58.80
2022-12-01T10:25:23.666Z,58.70
2022-12-01T10:28:41.132Z,58.70
2022-12-01T10:32:05.323Z,58.40
2022-12-01T10:35:09.734Z,57.50
2022-12-01T10:38:16.866Z,58.10
2022-12-01T10:41:16.615Z,58.50
2022-12-01T10:43:52.290Z,59.10
2022-12-01T10:46:39.171Z,57.70
2022-12-01T10:49:59.428Z,58.60
2022-12-01T10:53:06.224Z,59.70
2022-12-01T10:55:52.352Z,59.10
2022-12-01T11:01:39.333Z,57.30
2022-12-01T11:05:02.308Z,57.60
2022-12-01T11:08:16.843Z,58.20
2022-12-01T11:11:43.358Z,58.80
2022-12-01T11:14:53.389Z,59.00
2022-12-01T11:18:00.800Z,58.40
2022-12-01T11:20:43.903Z,58.10
2022-12-01T11:23:41.549Z,56.80
2022-12-01T11:29:45.775Z,57.20
2022-12-01T11:32:40.047Z,56.70
2022-12-01T11:35:32.541Z,56.60
2022-12-01T11:38:29.951Z,57.00
2022-12-01T11:41:54.208Z,57.20
2022-12-01T11:45:08.638Z,57.40
2022-12-01T11:48:24.459Z,57.50
2022-12-01T11:51:24.924Z,57.00
2022-12-01T11:57:58.834Z,56.70
2022-12-01T12:01:22.598Z,57.00
2022-12-01T12:04:35.534Z,56.30
2022-12-01T12:11:51.477Z,55.40
2022-12-01T12:15:14.793Z,56.20
2022-12-01T12:18:48.642Z,56.20
2022-12-01T12:26:11.052Z,56.00
2022-12-01T12:29:28.590Z,56.20
2022-12-01T12:32:59.210Z,56.90
2022-12-01T12:40:19.984Z,56.50
2022-12-01T12:47:47.422Z,56.30
2022-12-01T12:54:14.748Z,56.20
2022-12-01T12:56:47.266Z,56.20
2022-12-01T12:59:22.636Z,56.30
2022-12-01T13:01:58.447Z,56.20
2022-12-01T13:04:33.233Z,56.20
2022-12-01T13:07:06.431Z,56.30
2022-12-01T13:09:39.021Z,56.20
2022-12-01T13:12:15.657Z,56.20
2022-12-01T13:14:47.125Z,56.20
2022-12-01T13:17:21.080Z,56.20
2022-12-01T13:19:49.486Z,56.20
2022-12-01T13:22:24.577Z,56.80
2022-12-01T13:24:52.719Z,57.00
2022-12-01T13:27:24.275Z,57.40
2022-12-01T13:29:54.783Z,56.20
2022-12-01T13:32:31.511Z,57.30
2022-12-01T13:35:01.044Z,57.90
2022-12-01T13:37:33.725Z,56.10
2022-12-01T13:40:10.471Z,56.60
2022-12-01T13:42:39.896Z,57.20
2022-12-01T13:45:19.545Z,56.30
2022-12-01T13:53:30.017Z,56.90
2022-12-01T13:56:02.299Z,56.90
2022-12-01T14:05:03.760Z,56.20
2022-12-01T14:08:57.074Z,57.00
2022-12-01T14:20:43.859Z,57.70
2022-12-01T14:37:35.206Z,57.40
2022-12-01T14:40:41.157Z,56.50
2022-12-01T14:54:51.203Z,57.80
2022-12-01T14:57:26.601Z,57.50
2022-12-01T15:00:13.528Z,57.50
2022-12-01T15:02:43.564Z,57.90
2022-12-01T15:05:14.533Z,57.30
2022-12-01T15:11:59.341Z,57.00
2022-12-01T15:14:36.555Z,56.20
2022-12-01T15:17:09.758Z,56.30
2022-12-01T15:19:44.389Z,56.30
2022-12-01T15:22:15.976Z,56.10
2022-12-01T15:24:48.896Z,56.60
2022-12-01T15:27:34.215Z,57.20
2022-12-01T15:30:11.566Z,57.30
2022-12-01T15:32:44.030Z,56.20
2022-12-01T15:35:21.788Z,57.90
2022-12-01T15:37:52.141Z,57.80
2022-12-01T15:41:06.307Z,57.50
2022-12-01T15:43:24.721Z,57.30
2022-12-01T15:46:04.263Z,56.10
2022-12-01T15:48:46.063Z,56.30
2022-12-01T15:51:20.957Z,57.60
2022-12-01T15:53:59.722Z,57.70
2022-12-01T15:56:35.455Z,58.30
2022-12-01T15:59:30.063Z,57.80
2022-12-01T16:02:20.958Z,58.20
2022-12-01T16:05:06.070Z,57.40
2022-12-01T16:08:11.439Z,57.10
2022-12-01T16:10:30.908Z,57.90
2022-12-01T16:13:39.454Z,57.20
2022-12-01T16:16:29.317Z,58.00
2022-12-01T16:19:02.481Z,57.40
2022-12-01T16:21:36.328Z,58.30
2022-12-01T16:24:07.459Z,58.50
2022-12-01T16:26:51.629Z,59.10
2022-12-01T16:29:22.302Z,59.10
2022-12-01T16:34:49.690Z,58.70
2022-12-01T16:37:19.680Z,59.50
2022-12-01T16:39:49.552Z,59.30
2022-12-01T16:42:20.874Z,58.60
2022-12-01T16:44:54.210Z,58.50
2022-12-01T16:47:33.981Z,59.20
2022-12-01T16:50:04.274Z,59.10
2022-12-01T16:52:50.307Z,58.70
2022-12-01T16:55:30.674Z,59.20
2022-12-01T16:58:00.593Z,58.50
2022-12-01T17:00:30.386Z,58.10
2022-12-01T17:03:04.793Z,57.90
2022-12-01T17:05:34.459Z,58.70
2022-12-01T17:08:04.239Z,58.20
2022-12-01T17:10:33.110Z,57.50
2022-12-01T17:13:04.381Z,57.50
2022-12-01T17:15:42.125Z,57.20
2022-12-01T17:18:25.330Z,57.50
2022-12-01T17:21:03.691Z,58.00
2022-12-01T17:23:33.990Z,57.70
2022-12-01T17:26:03.794Z,59.10
2022-12-01T17:28:35.697Z,58.70
2022-12-01T17:31:06.330Z,59.00
2022-12-01T17:33:39.148Z,58.40
2022-12-01T17:36:12.446Z,57.60
2022-12-01T17:38:43.053Z,58.40
2022-12-01T17:41:15.170Z,58.60
2022-12-01T17:43:44.641Z,58.70
2022-12-01T17:46:14.666Z,58.80
2022-12-01T17:48:48.202Z,58.60
2022-12-01T17:51:17.893Z,58.20
2022-12-01T17:53:47.880Z,58.40
2022-12-01T17:56:18.681Z,58.90
2022-12-01T17:58:51.104Z,58.40
2022-12-01T18:01:29.910Z,58.60
2022-12-01T18:04:01.520Z,58.40
2022-12-01T18:06:34.442Z,58.60
2022-12-01T18:09:04.211Z,58.50
2022-12-01T18:11:36.301Z,58.50
2022-12-01T18:14:07.207Z,59.10
2022-12-01T18:16:37.049Z,59.60
2022-12-01T18:19:10.102Z,59.60
2022-12-01T18:21:40.350Z,59.60
2022-12-01T18:24:11.387Z,59.90
2022-12-01T18:26:45.369Z,59.20
2022-12-01T18:29:27.398Z,59.10
2022-12-01T18:31:58.300Z,59.50
2022-12-01T18:34:34.235Z,59.00
2022-12-01T18:37:10.154Z,58.60
2022-12-01T18:39:41.125Z,58.20
2022-12-01T18:42:12.711Z,58.50
2022-12-01T18:44:45.339Z,57.60
2022-12-01T18:47:14.587Z,58.10
2022-12-01T18:49:45.335Z,58.60
2022-12-01T18:52:14.357Z,58.90
2022-12-01T18:54:43.410Z,59.20
2022-12-01T18:57:15.105Z,59.20
2022-12-01T18:59:44.161Z,59.70
2022-12-01T19:02:14.075Z,59.80
2022-12-01T19:04:45.170Z,59.60
2022-12-01T19:07:14.562Z,60.10
2022-12-01T19:09:44.924Z,60.10
2022-12-01T19:12:14.172Z,60.70
2022-12-01T19:14:46.611Z,60.90
2022-12-01T19:17:16.883Z,61.10
2022-12-01T19:19:48.798Z,60.40
2022-12-01T19:22:20.249Z,60.50
2022-12-01T19:24:50.510Z,60.60
2022-12-01T19:27:24.376Z,60.70
2022-12-01T19:29:54.461Z,60.70
2022-12-01T19:32:24.118Z,60.40
2022-12-01T19:34:56.045Z,60.40
2022-12-01T19:37:26.043Z,60.30
2022-12-01T19:39:56.047Z,60.50
2022-12-01T19:42:25.574Z,61.00
2022-12-01T19:44:54.750Z,61.50
2022-12-01T19:47:25.022Z,61.40
2022-12-01T19:49:57.371Z,61.20
2022-12-01T19:52:27.110Z,61.30
2022-12-01T20:04:09.726Z,61.20
2022-12-01T20:06:41.612Z,61.60
2022-12-01T20:09:12.529Z,62.00
2022-12-01T20:11:43.679Z,62.00
2022-12-01T20:14:15.875Z,62.20
2022-12-01T20:17:15.730Z,62.30
2022-12-01T20:20:48.074Z,62.00
2022-12-01T20:24:07.175Z,62.20
2022-12-01T20:27:22.992Z,62.50
2022-12-01T20:31:52.111Z,62.40
2022-12-01T20:34:56.330Z,61.80
2022-12-01T20:39:50.721Z,62.00
2022-12-01T20:42:09.812Z,61.80
2022-12-01T20:44:59.414Z,61.50
2022-12-01T20:47:36.891Z,61.50
2022-12-01T20:50:15.441Z,61.50
2022-12-01T20:52:46.312Z,61.70
2022-12-01T20:55:23.204Z,61.50
2022-12-01T20:58:38.300Z,61.60
2022-12-01T21:04:42.070Z,61.30
2022-12-01T21:07:25.157Z,61.60
2022-12-01T21:10:07.721Z,62.20
2022-12-01T21:12:55.550Z,62.20
2022-12-01T21:15:46.303Z,62.20
2022-12-01T21:19:07.428Z,61.30
2022-12-01T21:22:02.917Z,62.00
2022-12-01T21:25:31.308Z,62.30
2022-12-01T21:38:58.434Z,61.50
2022-12-01T21:41:28.426Z,61.50
2022-12-01T21:44:01.639Z,61.50
2022-12-01T21:46:43.858Z,62.00
2022-12-01T21:49:33.433Z,62.10
2022-12-01T21:52:51.292Z,62.20
2022-12-01T21:56:22.400Z,62.30
2022-12-01T21:59:12.738Z,62.00
2022-12-01T22:02:01.322Z,62.00
2022-12-01T22:05:21.651Z,61.90
2022-12-01T22:08:08.142Z,61.80
2022-12-01T22:11:59.166Z,61.70
2022-12-01T22:15:41.701Z,61.90
2022-12-01T22:18:48.171Z,61.90
2022-12-01T22:27:02.808Z,61.50
2022-12-01T22:29:50.188Z,61.50
2022-12-01T22:32:45.882Z,61.00
2022-12-01T22:35:56.075Z,60.90
2022-12-01T22:38:38.916Z,60.90
2022-12-01T22:41:24.484Z,61.10
2022-12-01T22:44:03.022Z,61.20
2022-12-01T22:46:53.622Z,60.90
2022-12-01T22:59:07.572Z,61.10
2022-12-01T23:02:57.097Z,61.70
2022-12-01T23:05:33.912Z,62.00
2022-12-01T23:08:11.672Z,61.90
2022-12-01T23:10:42.199Z,62.10
2022-12-01T23:13:25.510Z,63.00
2022-12-01T23:16:28.560Z,63.10
2022-12-01T23:19:30.884Z,62.90
2022-12-01T23:22:04.018Z,62.90
2022-12-01T23:24:36.094Z,63.70
2022-12-01T23:27:17.994Z,63.90
2022-12-01T23:33:33.016Z,63.90
2022-12-01T23:41:02.658Z,63.80
2022-12-01T23:44:03.143Z,63.70
2022-12-01T23:54:24.337Z,63.70
2022-12-01T23:57:12.539Z,64.10
